sensor_id;sensor_type;location;lat;lon;timestamp;temperature;humidity
63051;SHT30;49136;47.416;19.402;2022-08-19T00:01:54;23.41;68.26
63051;SHT30;49136;47.416;19.402;2022-08-19T00:04:23;23.29;68.65
63051;SHT30;49136;47.416;19.402;2022-08-19T00:06:49;23.29;68.84
63051;SHT30;49136;47.416;19.402;2022-08-19T00:09:18;23.30;68.60
63051;SHT30;49136;47.416;19.402;2022-08-19T00:11:44;23.30;68.38
63051;SHT30;49136;47.416;19.402;2022-08-19T00:14:12;23.35;68.30
63051;SHT30;49136;47.416;19.402;2022-08-19T00:16:39;23.36;68.56
63051;SHT30;49136;47.416;19.402;2022-08-19T00:19:05;23.32;68.61
63051;SHT30;49136;47.416;19.402;2022-08-19T00:21:30;23.25;68.96
63051;SHT30;49136;47.416;19.402;2022-08-19T00:23:56;23.21;68.50
63051;SHT30;49136;47.416;19.402;2022-08-19T00:26:27;23.10;69.07
63051;SHT30;49136;47.416;19.402;2022-08-19T00:28:53;23.14;69.16
63051;SHT30;49136;47.416;19.402;2022-08-19T00:31:19;23.11;69.11
63051;SHT30;49136;47.416;19.402;2022-08-19T00:33:44;23.23;68.82
63051;SHT30;49136;47.416;19.402;2022-08-19T00:36:10;23.21;69.00
63051;SHT30;49136;47.416;19.402;2022-08-19T00:38:37;23.14;69.00
63051;SHT30;49136;47.416;19.402;2022-08-19T00:41:05;23.11;69.19
63051;SHT30;49136;47.416;19.402;2022-08-19T00:43:31;23.10;69.33
63051;SHT30;49136;47.416;19.402;2022-08-19T00:45:56;23.08;69.39
63051;SHT30;49136;47.416;19.402;2022-08-19T00:48:22;23.00;69.69
63051;SHT30;49136;47.416;19.402;2022-08-19T00:50:49;22.93;69.86
63051;SHT30;49136;47.416;19.402;2022-08-19T00:53:20;22.87;70.64
63051;SHT30;49136;47.416;19.402;2022-08-19T00:55:48;22.79;70.56
63051;SHT30;49136;47.416;19.402;2022-08-19T00:58:17;22.80;70.30
63051;SHT30;49136;47.416;19.402;2022-08-19T01:00:45;22.71;70.19
63051;SHT30;49136;47.416;19.402;2022-08-19T01:03:14;22.71;70.82
63051;SHT30;49136;47.416;19.402;2022-08-19T01:05:41;22.66;70.78
63051;SHT30;49136;47.416;19.402;2022-08-19T01:08:07;22.64;70.95
63051;SHT30;49136;47.416;19.402;2022-08-19T01:10:42;22.74;70.93
63051;SHT30;49136;47.416;19.402;2022-08-19T01:13:09;22.70;70.82
63051;SHT30;49136;47.416;19.402;2022-08-19T01:15:42;22.60;71.03
63051;SHT30;49136;47.416;19.402;2022-08-19T01:18:11;22.57;72.00
63051;SHT30;49136;47.416;19.402;2022-08-19T01:20:37;22.53;71.64
63051;SHT30;49136;47.416;19.402;2022-08-19T01:23:03;22.44;71.90
63051;SHT30;49136;47.416;19.402;2022-08-19T01:25:45;22.29;72.74
63051;SHT30;49136;47.416;19.402;2022-08-19T01:28:20;22.24;72.44
63051;SHT30;49136;47.416;19.402;2022-08-19T01:30:46;22.21;72.76
63051;SHT30;49136;47.416;19.402;2022-08-19T01:33:12;22.12;73.48
63051;SHT30;49136;47.416;19.402;2022-08-19T01:35:39;22.08;73.36
63051;SHT30;49136;47.416;19.402;2022-08-19T01:38:07;22.05;73.50
63051;SHT30;49136;47.416;19.402;2022-08-19T01:40:35;21.89;73.47
63051;SHT30;49136;47.416;19.402;2022-08-19T01:43:02;22.03;73.51
63051;SHT30;49136;47.416;19.402;2022-08-19T01:45:30;22.14;73.33
63051;SHT30;49136;47.416;19.402;2022-08-19T01:47:57;22.00;73.46
63051;SHT30;49136;47.416;19.402;2022-08-19T01:50:22;21.89;73.90
63051;SHT30;49136;47.416;19.402;2022-08-19T01:52:48;21.82;74.96
63051;SHT30;49136;47.416;19.402;2022-08-19T01:55:16;21.72;74.83
63051;SHT30;49136;47.416;19.402;2022-08-19T01:57:45;21.79;74.35
63051;SHT30;49136;47.416;19.402;2022-08-19T02:00:14;21.79;74.58
63051;SHT30;49136;47.416;19.402;2022-08-19T02:02:41;21.66;74.84
63051;SHT30;49136;47.416;19.402;2022-08-19T02:05:07;21.77;74.60
63051;SHT30;49136;47.416;19.402;2022-08-19T02:07:33;21.69;75.30
63051;SHT30;49136;47.416;19.402;2022-08-19T02:10:04;21.77;74.52
63051;SHT30;49136;47.416;19.402;2022-08-19T02:12:30;21.66;74.58
63051;SHT30;49136;47.416;19.402;2022-08-19T02:14:55;21.62;75.37
63051;SHT30;49136;47.416;19.402;2022-08-19T02:17:20;21.72;75.14
63051;SHT30;49136;47.416;19.402;2022-08-19T02:19:46;21.60;75.76
63051;SHT30;49136;47.416;19.402;2022-08-19T02:22:11;21.60;75.35
63051;SHT30;49136;47.416;19.402;2022-08-19T02:24:37;21.58;75.28
63051;SHT30;49136;47.416;19.402;2022-08-19T02:27:03;21.67;75.23
63051;SHT30;49136;47.416;19.402;2022-08-19T02:29:29;21.59;75.16
63051;SHT30;49136;47.416;19.402;2022-08-19T02:31:55;21.70;74.84
63051;SHT30;49136;47.416;19.402;2022-08-19T02:34:20;21.70;74.90
63051;SHT30;49136;47.416;19.402;2022-08-19T02:36:45;21.66;75.00
63051;SHT30;49136;47.416;19.402;2022-08-19T02:39:11;21.63;75.05
63051;SHT30;49136;47.416;19.402;2022-08-19T02:41:36;21.62;75.01
63051;SHT30;49136;47.416;19.402;2022-08-19T02:44:03;21.63;74.78
63051;SHT30;49136;47.416;19.402;2022-08-19T02:46:31;21.58;75.23
63051;SHT30;49136;47.416;19.402;2022-08-19T02:49:01;21.58;75.13
63051;SHT30;49136;47.416;19.402;2022-08-19T02:51:40;21.67;74.69
63051;SHT30;49136;47.416;19.402;2022-08-19T02:54:07;21.56;74.62
63051;SHT30;49136;47.416;19.402;2022-08-19T02:56:37;21.60;74.92
63051;SHT30;49136;47.416;19.402;2022-08-19T02:59:04;21.55;74.99
63051;SHT30;49136;47.416;19.402;2022-08-19T03:01:36;21.53;75.14
63051;SHT30;49136;47.416;19.402;2022-08-19T03:04:04;21.46;75.17
63051;SHT30;49136;47.416;19.402;2022-08-19T03:06:30;21.42;75.47
63051;SHT30;49136;47.416;19.402;2022-08-19T03:08:56;21.53;75.27
63051;SHT30;49136;47.416;19.402;2022-08-19T03:11:24;21.48;75.66
63051;SHT30;49136;47.416;19.402;2022-08-19T03:13:50;21.46;75.54
63051;SHT30;49136;47.416;19.402;2022-08-19T03:16:17;21.37;75.96
63051;SHT30;49136;47.416;19.402;2022-08-19T03:18:43;21.24;76.16
63051;SHT30;49136;47.416;19.402;2022-08-19T03:21:09;21.15;76.52
63051;SHT30;49136;47.416;19.402;2022-08-19T03:23:39;21.23;76.19
63051;SHT30;49136;47.416;19.402;2022-08-19T03:26:05;21.34;75.65
63051;SHT30;49136;47.416;19.402;2022-08-19T03:28:31;21.30;75.77
63051;SHT30;49136;47.416;19.402;2022-08-19T03:31:04;21.37;75.85
63051;SHT30;49136;47.416;19.402;2022-08-19T03:33:31;21.34;75.83
63051;SHT30;49136;47.416;19.402;2022-08-19T03:36:08;21.31;75.69
63051;SHT30;49136;47.416;19.402;2022-08-19T03:38:38;21.45;75.30
63051;SHT30;49136;47.416;19.402;2022-08-19T03:41:09;21.42;75.64
63051;SHT30;49136;47.416;19.402;2022-08-19T03:43:38;21.46;75.44
63051;SHT30;49136;47.416;19.402;2022-08-19T03:46:12;21.55;75.18
63051;SHT30;49136;47.416;19.402;2022-08-19T03:48:39;21.48;75.36
63051;SHT30;49136;47.416;19.402;2022-08-19T03:51:06;21.49;75.45
63051;SHT30;49136;47.416;19.402;2022-08-19T03:53:33;21.42;75.74
63051;SHT30;49136;47.416;19.402;2022-08-19T03:55:59;21.51;75.12
63051;SHT30;49136;47.416;19.402;2022-08-19T03:58:29;21.45;75.49
63051;SHT30;49136;47.416;19.402;2022-08-19T04:00:58;21.42;75.70
63051;SHT30;49136;47.416;19.402;2022-08-19T04:03:24;21.46;75.42
63051;SHT30;49136;47.416;19.402;2022-08-19T04:05:51;21.48;75.43
63051;SHT30;49136;47.416;19.402;2022-08-19T04:08:17;21.49;75.36
63051;SHT30;49136;47.416;19.402;2022-08-19T04:10:45;21.49;75.36
63051;SHT30;49136;47.416;19.402;2022-08-19T04:13:11;21.52;75.81
63051;SHT30;49136;47.416;19.402;2022-08-19T04:15:41;21.52;75.46
63051;SHT30;49136;47.416;19.402;2022-08-19T04:18:10;21.59;75.23
63051;SHT30;49136;47.416;19.402;2022-08-19T04:20:48;21.66;74.84
63051;SHT30;49136;47.416;19.402;2022-08-19T04:23:14;21.70;74.85
63051;SHT30;49136;47.416;19.402;2022-08-19T04:25:43;21.79;74.37
63051;SHT30;49136;47.416;19.402;2022-08-19T04:28:10;21.85;74.51
63051;SHT30;49136;47.416;19.402;2022-08-19T04:30:45;21.96;73.63
63051;SHT30;49136;47.416;19.402;2022-08-19T04:33:13;22.04;73.66
63051;SHT30;49136;47.416;19.402;2022-08-19T04:35:43;22.15;73.41
63051;SHT30;49136;47.416;19.402;2022-08-19T04:38:09;22.29;72.77
63051;SHT30;49136;47.416;19.402;2022-08-19T04:40:40;22.31;72.83
63051;SHT30;49136;47.416;19.402;2022-08-19T04:43:25;22.34;72.67
63051;SHT30;49136;47.416;19.402;2022-08-19T04:45:51;22.46;73.06
63051;SHT30;49136;47.416;19.402;2022-08-19T04:48:17;22.49;72.40
63051;SHT30;49136;47.416;19.402;2022-08-19T04:50:55;22.56;72.24
63051;SHT30;49136;47.416;19.402;2022-08-19T04:53:34;22.60;72.53
63051;SHT30;49136;47.416;19.402;2022-08-19T04:56:05;22.57;72.23
63051;SHT30;49136;47.416;19.402;2022-08-19T04:58:32;22.63;72.03
63051;SHT30;49136;47.416;19.402;2022-08-19T05:00:58;22.70;72.66
63051;SHT30;49136;47.416;19.402;2022-08-19T05:03:25;22.56;71.93
63051;SHT30;49136;47.416;19.402;2022-08-19T05:05:51;22.76;71.96
63051;SHT30;49136;47.416;19.402;2022-08-19T05:08:19;22.90;71.62
63051;SHT30;49136;47.416;19.402;2022-08-19T05:10:47;23.10;71.53
63051;SHT30;49136;47.416;19.402;2022-08-19T05:13:13;23.08;70.63
63051;SHT30;49136;47.416;19.402;2022-08-19T05:15:40;23.14;71.07
63051;SHT30;49136;47.416;19.402;2022-08-19T05:18:06;23.28;70.66
63051;SHT30;49136;47.416;19.402;2022-08-19T05:20:50;23.36;69.90
63051;SHT30;49136;47.416;19.402;2022-08-19T05:23:34;23.52;69.83
63051;SHT30;49136;47.416;19.402;2022-08-19T05:25:59;23.70;69.81
63051;SHT30;49136;47.416;19.402;2022-08-19T05:28:25;23.81;69.18
63051;SHT30;49136;47.416;19.402;2022-08-19T05:30:50;23.96;68.72
63051;SHT30;49136;47.416;19.402;2022-08-19T05:33:17;24.14;68.21
63051;SHT30;49136;47.416;19.402;2022-08-19T05:35:43;24.15;68.57
63051;SHT30;49136;47.416;19.402;2022-08-19T05:38:09;24.29;67.69
63051;SHT30;49136;47.416;19.402;2022-08-19T05:40:37;24.40;67.10
63051;SHT30;49136;47.416;19.402;2022-08-19T05:43:05;24.63;66.57
63051;SHT30;49136;47.416;19.402;2022-08-19T05:45:31;24.82;66.97
63051;SHT30;49136;47.416;19.402;2022-08-19T05:47:56;25.06;66.23
63051;SHT30;49136;47.416;19.402;2022-08-19T05:50:23;25.19;65.43
63051;SHT30;49136;47.416;19.402;2022-08-19T05:52:50;25.46;66.29
63051;SHT30;49136;47.416;19.402;2022-08-19T05:55:16;25.49;64.96
63051;SHT30;49136;47.416;19.402;2022-08-19T05:57:41;25.71;64.14
63051;SHT30;49136;47.416;19.402;2022-08-19T06:00:07;25.70;64.28
63051;SHT30;49136;47.416;19.402;2022-08-19T06:02:36;25.95;63.44
63051;SHT30;49136;47.416;19.402;2022-08-19T06:05:04;25.98;63.40
63051;SHT30;49136;47.416;19.402;2022-08-19T06:07:32;26.20;62.50
63051;SHT30;49136;47.416;19.402;2022-08-19T06:09:57;26.32;62.89
63051;SHT30;49136;47.416;19.402;2022-08-19T06:12:23;26.41;61.81
63051;SHT30;49136;47.416;19.402;2022-08-19T06:14:54;26.52;61.92
63051;SHT30;49136;47.416;19.402;2022-08-19T06:17:20;26.71;61.28
63051;SHT30;49136;47.416;19.402;2022-08-19T06:19:47;26.76;60.30
63051;SHT30;49136;47.416;19.402;2022-08-19T06:22:15;26.79;60.81
63051;SHT30;49136;47.416;19.402;2022-08-19T06:24:41;27.07;60.23
63051;SHT30;49136;47.416;19.402;2022-08-19T06:27:07;27.20;59.75
63051;SHT30;49136;47.416;19.402;2022-08-19T06:29:32;27.41;60.23
63051;SHT30;49136;47.416;19.402;2022-08-19T06:32:00;27.36;59.01
63051;SHT30;49136;47.416;19.402;2022-08-19T06:34:28;27.22;59.93
63051;SHT30;49136;47.416;19.402;2022-08-19T06:36:56;27.19;59.59
63051;SHT30;49136;47.416;19.402;2022-08-19T06:39:25;27.07;60.49
63051;SHT30;49136;47.416;19.402;2022-08-19T06:41:54;27.44;59.02
63051;SHT30;49136;47.416;19.402;2022-08-19T06:44:21;27.99;60.49
63051;SHT30;49136;47.416;19.402;2022-08-19T06:46:47;28.00;58.60
63051;SHT30;49136;47.416;19.402;2022-08-19T06:49:14;27.99;58.16
63051;SHT30;49136;47.416;19.402;2022-08-19T06:51:42;28.11;57.47
63051;SHT30;49136;47.416;19.402;2022-08-19T06:54:08;28.28;56.89
63051;SHT30;49136;47.416;19.402;2022-08-19T06:56:34;28.34;57.68
63051;SHT30;49136;47.416;19.402;2022-08-19T06:59:05;28.75;57.73
63051;SHT30;49136;47.416;19.402;2022-08-19T07:01:46;28.96;57.12
63051;SHT30;49136;47.416;19.402;2022-08-19T07:04:13;29.14;56.70
63051;SHT30;49136;47.416;19.402;2022-08-19T07:06:39;28.89;56.35
63051;SHT30;49136;47.416;19.402;2022-08-19T07:09:06;29.17;55.04
63051;SHT30;49136;47.416;19.402;2022-08-19T07:11:32;29.44;54.56
63051;SHT30;49136;47.416;19.402;2022-08-19T07:13:58;29.54;54.64
63051;SHT30;49136;47.416;19.402;2022-08-19T07:16:23;29.56;54.95
63051;SHT30;49136;47.416;19.402;2022-08-19T07:18:50;29.58;55.96
63051;SHT30;49136;47.416;19.402;2022-08-19T07:21:20;29.74;54.75
63051;SHT30;49136;47.416;19.402;2022-08-19T07:23:47;29.87;54.85
63051;SHT30;49136;47.416;19.402;2022-08-19T07:26:22;30.10;54.35
63051;SHT30;49136;47.416;19.402;2022-08-19T07:28:48;29.91;54.11
63051;SHT30;49136;47.416;19.402;2022-08-19T07:31:16;30.08;54.34
63051;SHT30;49136;47.416;19.402;2022-08-19T07:33:44;30.01;54.24
63051;SHT30;49136;47.416;19.402;2022-08-19T07:36:11;30.31;54.89
63051;SHT30;49136;47.416;19.402;2022-08-19T07:38:40;30.15;52.88
63051;SHT30;49136;47.416;19.402;2022-08-19T07:41:06;30.46;53.29
63051;SHT30;49136;47.416;19.402;2022-08-19T07:43:31;30.88;54.69
63051;SHT30;49136;47.416;19.402;2022-08-19T07:45:57;30.39;52.62
63051;SHT30;49136;47.416;19.402;2022-08-19T07:48:24;30.52;53.90
63051;SHT30;49136;47.416;19.402;2022-08-19T07:50:55;31.01;53.02
63051;SHT30;49136;47.416;19.402;2022-08-19T07:53:22;30.83;51.80
63051;SHT30;49136;47.416;19.402;2022-08-19T07:55:48;30.83;51.71
63051;SHT30;49136;47.416;19.402;2022-08-19T07:58:16;30.97;52.71
63051;SHT30;49136;47.416;19.402;2022-08-19T08:00:43;31.18;51.71
63051;SHT30;49136;47.416;19.402;2022-08-19T08:03:13;31.54;50.23
63051;SHT30;49136;47.416;19.402;2022-08-19T08:05:39;31.78;49.81
63051;SHT30;49136;47.416;19.402;2022-08-19T08:08:23;31.73;50.38
63051;SHT30;49136;47.416;19.402;2022-08-19T08:11:08;31.94;49.87
63051;SHT30;49136;47.416;19.402;2022-08-19T08:13:34;31.97;49.12
63051;SHT30;49136;47.416;19.402;2022-08-19T08:16:02;31.77;48.83
63051;SHT30;49136;47.416;19.402;2022-08-19T08:18:28;31.84;49.83
63051;SHT30;49136;47.416;19.402;2022-08-19T08:20:56;31.97;49.37
63051;SHT30;49136;47.416;19.402;2022-08-19T08:23:22;32.04;50.37
63051;SHT30;49136;47.416;19.402;2022-08-19T08:25:51;32.08;50.47
63051;SHT30;49136;47.416;19.402;2022-08-19T08:28:17;32.32;49.09
63051;SHT30;49136;47.416;19.402;2022-08-19T08:30:44;32.08;49.94
63051;SHT30;49136;47.416;19.402;2022-08-19T08:33:11;32.00;48.81
63051;SHT30;49136;47.416;19.402;2022-08-19T08:35:36;32.07;47.81
63051;SHT30;49136;47.416;19.402;2022-08-19T08:38:02;32.37;47.36
63051;SHT30;49136;47.416;19.402;2022-08-19T08:40:43;32.55;47.94
63051;SHT30;49136;47.416;19.402;2022-08-19T08:43:24;32.59;47.96
63051;SHT30;49136;47.416;19.402;2022-08-19T08:50:58;32.77;46.06
63051;SHT30;49136;47.416;19.402;2022-08-19T08:53:25;33.07;46.92
63051;SHT30;49136;47.416;19.402;2022-08-19T08:55:51;32.97;47.55
63051;SHT30;49136;47.416;19.402;2022-08-19T08:58:26;33.09;46.88
63051;SHT30;49136;47.416;19.402;2022-08-19T09:00:53;33.49;48.75
63051;SHT30;49136;47.416;19.402;2022-08-19T09:03:19;33.32;45.40
63051;SHT30;49136;47.416;19.402;2022-08-19T09:06:32;33.19;45.76
63051;SHT30;49136;47.416;19.402;2022-08-19T09:09:14;33.59;45.71
63051;SHT30;49136;47.416;19.402;2022-08-19T09:15:09;33.85;44.40
63051;SHT30;49136;47.416;19.402;2022-08-19T09:17:35;33.81;43.32
63051;SHT30;49136;47.416;19.402;2022-08-19T09:22:35;33.76;43.49
63051;SHT30;49136;47.416;19.402;2022-08-19T09:25:01;33.73;43.06
63051;SHT30;49136;47.416;19.402;2022-08-19T09:27:28;33.87;44.57
63051;SHT30;49136;47.416;19.402;2022-08-19T09:29:54;33.77;43.64
63051;SHT30;49136;47.416;19.402;2022-08-19T09:32:21;33.87;45.19
63051;SHT30;49136;47.416;19.402;2022-08-19T09:34:47;33.97;43.63
63051;SHT30;49136;47.416;19.402;2022-08-19T09:37:12;34.29;43.66
63051;SHT30;49136;47.416;19.402;2022-08-19T09:39:39;34.36;45.89
63051;SHT30;49136;47.416;19.402;2022-08-19T09:42:07;34.08;43.24
63051;SHT30;49136;47.416;19.402;2022-08-19T09:44:38;34.15;45.04
63051;SHT30;49136;47.416;19.402;2022-08-19T09:47:04;34.19;43.78
63051;SHT30;49136;47.416;19.402;2022-08-19T09:49:29;34.37;44.17
63051;SHT30;49136;47.416;19.402;2022-08-19T09:51:56;34.46;43.31
63051;SHT30;49136;47.416;19.402;2022-08-19T09:54:22;34.56;42.84
63051;SHT30;49136;47.416;19.402;2022-08-19T09:56:48;34.56;42.32
63051;SHT30;49136;47.416;19.402;2022-08-19T09:59:13;34.52;41.96
63051;SHT30;49136;47.416;19.402;2022-08-19T10:01:39;34.29;43.47
63051;SHT30;49136;47.416;19.402;2022-08-19T10:04:04;34.63;42.79
63051;SHT30;49136;47.416;19.402;2022-08-19T10:06:35;34.60;43.91
63051;SHT30;49136;47.416;19.402;2022-08-19T10:09:01;34.74;41.45
63051;SHT30;49136;47.416;19.402;2022-08-19T10:11:29;35.05;42.09
63051;SHT30;49136;47.416;19.402;2022-08-19T10:13:55;35.09;41.59
63051;SHT30;49136;47.416;19.402;2022-08-19T10:16:23;34.98;41.54
63051;SHT30;49136;47.416;19.402;2022-08-19T10:18:49;35.01;42.74
63051;SHT30;49136;47.416;19.402;2022-08-19T10:21:22;35.02;40.37
63051;SHT30;49136;47.416;19.402;2022-08-19T10:23:49;35.37;42.66
63051;SHT30;49136;47.416;19.402;2022-08-19T10:26:21;35.47;41.24
63051;SHT30;49136;47.416;19.402;2022-08-19T10:28:47;35.19;40.51
63051;SHT30;49136;47.416;19.402;2022-08-19T10:31:16;35.29;40.53
63051;SHT30;49136;47.416;19.402;2022-08-19T10:33:43;35.28;40.51
63051;SHT30;49136;47.416;19.402;2022-08-19T10:36:12;35.44;40.29
63051;SHT30;49136;47.416;19.402;2022-08-19T10:38:41;35.36;40.69
63051;SHT30;49136;47.416;19.402;2022-08-19T10:41:12;35.63;42.95
63051;SHT30;49136;47.416;19.402;2022-08-19T10:43:39;35.73;43.14
63051;SHT30;49136;47.416;19.402;2022-08-19T10:46:10;36.02;41.43
63051;SHT30;49136;47.416;19.402;2022-08-19T10:48:36;35.47;38.68
63051;SHT30;49136;47.416;19.402;2022-08-19T10:51:03;35.87;39.73
63051;SHT30;49136;47.416;19.402;2022-08-19T10:53:47;35.80;39.12
63051;SHT30;49136;47.416;19.402;2022-08-19T10:56:13;36.08;40.43
63051;SHT30;49136;47.416;19.402;2022-08-19T10:58:57;36.23;40.46
63051;SHT30;49136;47.416;19.402;2022-08-19T11:01:25;36.23;40.64
63051;SHT30;49136;47.416;19.402;2022-08-19T11:03:50;36.48;38.98
63051;SHT30;49136;47.416;19.402;2022-08-19T11:06:16;36.12;39.55
63051;SHT30;49136;47.416;19.402;2022-08-19T11:08:41;36.30;39.73
63051;SHT30;49136;47.416;19.402;2022-08-19T11:11:12;36.25;39.37
63051;SHT30;49136;47.416;19.402;2022-08-19T11:13:40;36.41;37.76
63051;SHT30;49136;47.416;19.402;2022-08-19T11:16:08;36.55;40.50
63051;SHT30;49136;47.416;19.402;2022-08-19T11:18:38;36.58;37.69
63051;SHT30;49136;47.416;19.402;2022-08-19T11:21:26;36.64;38.77
63051;SHT30;49136;47.416;19.402;2022-08-19T11:23:54;36.55;37.77
63051;SHT30;49136;47.416;19.402;2022-08-19T11:26:21;36.68;38.56
63051;SHT30;49136;47.416;19.402;2022-08-19T11:28:47;36.70;39.13
63051;SHT30;49136;47.416;19.402;2022-08-19T11:31:17;36.87;39.65
63051;SHT30;49136;47.416;19.402;2022-08-19T11:33:44;36.64;38.34
63051;SHT30;49136;47.416;19.402;2022-08-19T11:36:11;36.57;39.32
63051;SHT30;49136;47.416;19.402;2022-08-19T11:38:36;36.60;38.67
63051;SHT30;49136;47.416;19.402;2022-08-19T11:41:05;36.91;38.12
63051;SHT30;49136;47.416;19.402;2022-08-19T11:43:33;37.20;37.67
63051;SHT30;49136;47.416;19.402;2022-08-19T11:45:59;37.33;38.00
63051;SHT30;49136;47.416;19.402;2022-08-19T11:48:25;37.33;37.35
63051;SHT30;49136;47.416;19.402;2022-08-19T11:50:52;37.55;38.12
63051;SHT30;49136;47.416;19.402;2022-08-19T11:53:20;37.74;38.80
63051;SHT30;49136;47.416;19.402;2022-08-19T11:55:47;37.02;36.23
63051;SHT30;49136;47.416;19.402;2022-08-19T11:58:14;37.30;36.85
63051;SHT30;49136;47.416;19.402;2022-08-19T12:00:40;37.02;36.22
63051;SHT30;49136;47.416;19.402;2022-08-19T12:03:07;37.02;36.53
63051;SHT30;49136;47.416;19.402;2022-08-19T12:05:32;37.25;38.01
63051;SHT30;49136;47.416;19.402;2022-08-19T12:07:58;37.57;41.62
63051;SHT30;49136;47.416;19.402;2022-08-19T12:10:23;37.77;38.30
63051;SHT30;49136;47.416;19.402;2022-08-19T12:12:50;37.82;37.51
63051;SHT30;49136;47.416;19.402;2022-08-19T12:15:15;37.38;36.35
63051;SHT30;49136;47.416;19.402;2022-08-19T12:17:41;37.64;38.72
63051;SHT30;49136;47.416;19.402;2022-08-19T12:20:09;37.77;36.60
63051;SHT30;49136;47.416;19.402;2022-08-19T12:22:37;38.09;37.53
63051;SHT30;49136;47.416;19.402;2022-08-19T12:25:04;37.99;35.55
63051;SHT30;49136;47.416;19.402;2022-08-19T12:27:30;37.92;37.40
63051;SHT30;49136;47.416;19.402;2022-08-19T12:29:55;38.33;36.48
63051;SHT30;49136;47.416;19.402;2022-08-19T12:32:22;38.34;36.14
63051;SHT30;49136;47.416;19.402;2022-08-19T12:34:47;38.40;36.63
63051;SHT30;49136;47.416;19.402;2022-08-19T12:37:13;38.55;36.56
63051;SHT30;49136;47.416;19.402;2022-08-19T12:39:41;38.27;37.00
63051;SHT30;49136;47.416;19.402;2022-08-19T12:42:08;38.20;36.82
63051;SHT30;49136;47.416;19.402;2022-08-19T12:44:35;37.90;37.87
63051;SHT30;49136;47.416;19.402;2022-08-19T12:47:01;37.89;37.09
63051;SHT30;49136;47.416;19.402;2022-08-19T12:49:29;37.68;38.77
63051;SHT30;49136;47.416;19.402;2022-08-19T12:51:55;37.64;37.90
63051;SHT30;49136;47.416;19.402;2022-08-19T12:54:20;37.47;37.55
63051;SHT30;49136;47.416;19.402;2022-08-19T12:56:46;37.82;38.05
63051;SHT30;49136;47.416;19.402;2022-08-19T12:59:11;37.88;36.14
63051;SHT30;49136;47.416;19.402;2022-08-19T13:01:37;37.86;36.10
63051;SHT30;49136;47.416;19.402;2022-08-19T13:04:03;37.92;38.78
63051;SHT30;49136;47.416;19.402;2022-08-19T13:06:28;37.51;36.57
63051;SHT30;49136;47.416;19.402;2022-08-19T13:08:55;37.36;37.13
63051;SHT30;49136;47.416;19.402;2022-08-19T13:11:21;37.78;39.59
63051;SHT30;49136;47.416;19.402;2022-08-19T13:13:51;37.33;35.26
63051;SHT30;49136;47.416;19.402;2022-08-19T13:16:17;37.15;35.78
63051;SHT30;49136;47.416;19.402;2022-08-19T13:18:45;37.25;38.92
63051;SHT30;49136;47.416;19.402;2022-08-19T13:21:16;37.51;37.24
63051;SHT30;49136;47.416;19.402;2022-08-19T13:23:42;37.46;36.27
63051;SHT30;49136;47.416;19.402;2022-08-19T13:26:09;38.06;36.37
63051;SHT30;49136;47.416;19.402;2022-08-19T13:28:35;37.92;37.75
63051;SHT30;49136;47.416;19.402;2022-08-19T13:31:21;38.23;36.67
63051;SHT30;49136;47.416;19.402;2022-08-19T13:34:06;37.96;35.95
63051;SHT30;49136;47.416;19.402;2022-08-19T13:36:33;37.92;35.57
63051;SHT30;49136;47.416;19.402;2022-08-19T13:38:58;37.61;35.15
63051;SHT30;49136;47.416;19.402;2022-08-19T13:41:24;37.54;35.42
63051;SHT30;49136;47.416;19.402;2022-08-19T13:43:49;37.89;37.27
63051;SHT30;49136;47.416;19.402;2022-08-19T13:46:15;37.85;38.08
63051;SHT30;49136;47.416;19.402;2022-08-19T13:48:41;37.60;37.18
63051;SHT30;49136;47.416;19.402;2022-08-19T13:51:07;37.50;37.79
63051;SHT30;49136;47.416;19.402;2022-08-19T13:53:36;37.29;39.33
63051;SHT30;49136;47.416;19.402;2022-08-19T13:56:06;37.19;37.95
63051;SHT30;49136;47.416;19.402;2022-08-19T13:58:32;37.29;38.01
63051;SHT30;49136;47.416;19.402;2022-08-19T14:00:58;36.84;40.30
63051;SHT30;49136;47.416;19.402;2022-08-19T14:03:25;36.84;36.99
63051;SHT30;49136;47.416;19.402;2022-08-19T14:05:50;36.79;39.97
63051;SHT30;49136;47.416;19.402;2022-08-19T14:08:15;36.48;39.24
63051;SHT30;49136;47.416;19.402;2022-08-19T14:10:41;36.58;38.82
63051;SHT30;49136;47.416;19.402;2022-08-19T14:13:09;36.57;39.76
63051;SHT30;49136;47.416;19.402;2022-08-19T14:15:34;36.41;39.69
63051;SHT30;49136;47.416;19.402;2022-08-19T14:17:59;36.18;40.57
63051;SHT30;49136;47.416;19.402;2022-08-19T14:20:26;35.96;38.73
63051;SHT30;49136;47.416;19.402;2022-08-19T14:22:52;35.84;39.68
63051;SHT30;49136;47.416;19.402;2022-08-19T14:25:21;35.71;39.95
63051;SHT30;49136;47.416;19.402;2022-08-19T14:27:47;35.65;39.61
63051;SHT30;49136;47.416;19.402;2022-08-19T14:30:18;35.47;38.48
63051;SHT30;49136;47.416;19.402;2022-08-19T14:32:44;35.43;39.73
63051;SHT30;49136;47.416;19.402;2022-08-19T14:35:11;35.43;39.16
63051;SHT30;49136;47.416;19.402;2022-08-19T14:37:38;35.46;41.22
63051;SHT30;49136;47.416;19.402;2022-08-19T14:40:04;36.08;40.02
63051;SHT30;49136;47.416;19.402;2022-08-19T14:42:29;36.43;38.96
63051;SHT30;49136;47.416;19.402;2022-08-19T14:44:58;36.22;42.66
63051;SHT30;49136;47.416;19.402;2022-08-19T14:47:24;36.08;42.84
63051;SHT30;49136;47.416;19.402;2022-08-19T14:49:50;36.11;42.61
63051;SHT30;49136;47.416;19.402;2022-08-19T14:52:15;36.01;42.47
63051;SHT30;49136;47.416;19.402;2022-08-19T14:54:41;35.77;43.37
63051;SHT30;49136;47.416;19.402;2022-08-19T14:57:06;35.70;43.91
63051;SHT30;49136;47.416;19.402;2022-08-19T14:59:34;35.51;44.51
63051;SHT30;49136;47.416;19.402;2022-08-19T15:01:59;35.18;43.84
63051;SHT30;49136;47.416;19.402;2022-08-19T15:04:25;34.67;44.79
63051;SHT30;49136;47.416;19.402;2022-08-19T15:06:50;34.68;44.55
63051;SHT30;49136;47.416;19.402;2022-08-19T15:09:16;34.54;44.90
63051;SHT30;49136;47.416;19.402;2022-08-19T15:11:42;34.08;46.26
63051;SHT30;49136;47.416;19.402;2022-08-19T15:14:07;33.81;46.86
63051;SHT30;49136;47.416;19.402;2022-08-19T15:16:35;33.41;47.88
63051;SHT30;49136;47.416;19.402;2022-08-19T15:19:00;33.11;47.78
63051;SHT30;49136;47.416;19.402;2022-08-19T15:21:27;32.78;48.08
63051;SHT30;49136;47.416;19.402;2022-08-19T15:23:55;32.37;48.89
63051;SHT30;49136;47.416;19.402;2022-08-19T15:26:21;32.11;49.02
63051;SHT30;49136;47.416;19.402;2022-08-19T15:28:47;32.01;49.35
63051;SHT30;49136;47.416;19.402;2022-08-19T15:31:16;31.83;49.44